createdAt,value
2023-09-28T00:01:23.213Z,19.22
2023-09-28T00:03:49.874Z,19.16
2023-09-28T00:06:16.434Z,19.13
2023-09-28T00:08:42.991Z,19.28
2023-09-28T00:11:09.529Z,19.19
2023-09-28T00:13:36.054Z,19.22
2023-09-28T00:16:02.715Z,19.17
2023-09-28T00:18:30.442Z,19.18
2023-09-28T00:20:57.504Z,19.21
2023-09-28T00:23:24.118Z,19.15
2023-09-28T00:25:50.740Z,19.01
2023-09-28T00:28:17.557Z,19.05
2023-09-28T00:30:45.407Z,19.06
2023-09-28T00:33:12.185Z,18.93
2023-09-28T00:35:38.866Z,18.89
2023-09-28T00:38:06.897Z,18.92
2023-09-28T00:40:34.028Z,18.98
2023-09-28T00:43:02.037Z,18.96
2023-09-28T00:45:29.263Z,18.98
2023-09-28T00:48:10.469Z,19.04
2023-09-28T00:50:37.382Z,19.03
2023-09-28T00:53:06.195Z,19.01
2023-09-28T00:55:33.650Z,19.02
2023-09-28T00:58:02.659Z,18.91
2023-09-28T01:00:31.048Z,19.03
2023-09-28T01:02:59.880Z,19.11
2023-09-28T01:05:29.370Z,19.09
2023-09-28T01:07:57.315Z,19.19
2023-09-28T01:10:26.763Z,19.10
2023-09-28T01:12:53.309Z,19.14
2023-09-28T01:15:20.818Z,19.14
2023-09-28T01:17:47.580Z,19.17
2023-09-28T01:20:31.618Z,19.13
2023-09-28T01:22:58.651Z,18.95
2023-09-28T01:25:27.209Z,18.92
2023-09-28T01:27:53.975Z,18.90
2023-09-28T01:30:20.577Z,18.87
2023-09-28T01:32:47.360Z,18.92
2023-09-28T01:35:13.973Z,18.93
2023-09-28T01:37:46.113Z,18.88
2023-09-28T01:40:14.577Z,18.73
2023-09-28T01:42:41.157Z,18.83
2023-09-28T01:45:08.162Z,18.90
2023-09-28T01:47:34.747Z,18.90
2023-09-28T01:50:02.038Z,18.86
2023-09-28T01:52:28.545Z,18.78
2023-09-28T01:54:55.054Z,18.70
2023-09-28T01:57:21.777Z,18.72
2023-09-28T01:59:48.282Z,18.70
2023-09-28T02:02:17.519Z,18.76
2023-09-28T02:04:45.045Z,18.74
2023-09-28T02:07:11.539Z,18.80
2023-09-28T02:09:38.062Z,18.79
2023-09-28T02:12:04.917Z,18.67
2023-09-28T02:14:31.951Z,18.70
2023-09-28T02:16:58.460Z,18.70
2023-09-28T02:19:25.014Z,18.69
2023-09-28T02:21:52.638Z,18.74
2023-09-28T02:24:19.137Z,18.68
2023-09-28T02:26:45.777Z,18.62
2023-09-28T02:29:13.758Z,18.53
2023-09-28T02:31:44.869Z,18.53
2023-09-28T02:34:11.376Z,18.56
2023-09-28T02:36:37.935Z,18.50
2023-09-28T02:39:10.631Z,18.43
2023-09-28T02:41:37.111Z,18.49
2023-09-28T02:44:03.719Z,18.28
2023-09-28T02:46:30.579Z,18.31
2023-09-28T02:48:57.234Z,18.26
2023-09-28T02:51:23.947Z,18.27
2023-09-28T02:53:50.665Z,18.20
2023-09-28T02:56:18.419Z,18.29
2023-09-28T02:58:47.581Z,18.27
2023-09-28T03:01:14.105Z,18.29
2023-09-28T03:03:40.727Z,18.23
2023-09-28T03:06:07.407Z,18.24
2023-09-28T03:08:34.061Z,18.26
2023-09-28T03:11:00.634Z,18.31
2023-09-28T03:13:27.401Z,18.29
2023-09-28T03:15:55.045Z,18.26
2023-09-28T03:18:22.955Z,18.16
2023-09-28T03:20:49.668Z,18.15
2023-09-28T03:23:16.297Z,17.99
2023-09-28T03:25:44.116Z,17.93
2023-09-28T03:28:10.790Z,17.95
2023-09-28T03:30:37.377Z,17.87
2023-09-28T03:33:04.154Z,17.77
2023-09-28T03:35:30.717Z,17.76
2023-09-28T03:37:59.826Z,17.76
2023-09-28T03:40:35.608Z,17.76
2023-09-28T03:43:02.526Z,17.71
2023-09-28T03:45:29.133Z,17.62
2023-09-28T03:47:55.782Z,17.72
2023-09-28T03:50:24.010Z,17.59
2023-09-28T03:52:51.362Z,17.57
2023-09-28T03:55:20.170Z,17.58
2023-09-28T03:57:47.453Z,17.70
2023-09-28T04:00:16.127Z,17.51
2023-09-28T04:02:46.898Z,17.53
2023-09-28T04:05:15.260Z,17.51
2023-09-28T04:07:42.575Z,17.61
2023-09-28T04:10:10.330Z,17.73
2023-09-28T04:12:37.332Z,17.56
2023-09-28T04:15:04.886Z,17.55
2023-09-28T04:17:31.475Z,17.42
2023-09-28T04:19:58.110Z,17.44
2023-09-28T04:22:24.740Z,17.48
2023-09-28T04:24:51.190Z,17.60
2023-09-28T04:27:17.944Z,17.53
2023-09-28T04:29:44.990Z,17.47
2023-09-28T04:32:11.513Z,17.35
2023-09-28T04:34:38.165Z,17.38
2023-09-28T04:37:05.601Z,17.45
2023-09-28T04:39:32.322Z,17.33
2023-09-28T04:41:59.535Z,17.35
2023-09-28T04:44:26.174Z,17.31
2023-09-28T04:46:52.718Z,17.28
2023-09-28T04:49:19.556Z,17.39
2023-09-28T04:51:46.863Z,17.33
2023-09-28T04:54:13.495Z,17.25
2023-09-28T04:56:41.531Z,17.19
2023-09-28T04:59:09.688Z,17.17
2023-09-28T05:01:36.512Z,17.24
2023-09-28T05:04:03.434Z,17.18
2023-09-28T05:06:30.069Z,17.19
2023-09-28T05:08:57.517Z,17.24
2023-09-28T05:11:24.281Z,17.30
2023-09-28T05:13:53.184Z,17.25
2023-09-28T05:16:20.463Z,17.26
2023-09-28T05:18:47.916Z,17.23
2023-09-28T05:21:14.529Z,17.22
2023-09-28T05:23:41.496Z,17.13
2023-09-28T05:26:08.140Z,17.18
2023-09-28T05:28:34.739Z,17.12
2023-09-28T05:31:01.313Z,17.08
2023-09-28T05:33:28.293Z,16.83
2023-09-28T05:35:55.221Z,16.89
2023-09-28T05:38:21.931Z,16.99
2023-09-28T05:40:48.468Z,16.97
2023-09-28T05:43:14.979Z,17.02
2023-09-28T05:45:41.985Z,16.99
2023-09-28T05:48:08.500Z,16.80
2023-09-28T05:50:35.075Z,16.77
2023-09-28T05:53:01.779Z,16.77
2023-09-28T05:55:28.396Z,16.74
2023-09-28T05:57:55.104Z,16.80
2023-09-28T06:00:21.890Z,16.86
2023-09-28T06:02:48.416Z,16.87
2023-09-28T06:05:15.065Z,16.94
2023-09-28T06:07:41.732Z,16.99
2023-09-28T06:10:09.461Z,17.03
2023-09-28T06:12:37.546Z,17.09
2023-09-28T06:15:06.741Z,17.18
2023-09-28T06:17:34.866Z,17.10
2023-09-28T06:20:01.695Z,17.10
2023-09-28T06:22:28.285Z,17.03
2023-09-28T06:24:56.865Z,17.05
2023-09-28T06:27:26.597Z,17.03
2023-09-28T06:29:54.859Z,17.13
2023-09-28T06:32:23.268Z,17.14
2023-09-28T06:34:49.972Z,17.06
2023-09-28T06:37:16.569Z,17.16
2023-09-28T06:39:43.244Z,17.27
2023-09-28T06:42:23.059Z,17.28
2023-09-28T06:44:56.200Z,17.33
2023-09-28T06:47:23.590Z,17.19
2023-09-28T06:49:52.474Z,17.19
2023-09-28T06:52:19.279Z,17.19
2023-09-28T06:54:45.738Z,17.15
2023-09-28T06:57:12.985Z,17.16
2023-09-28T06:59:39.500Z,17.22
2023-09-28T07:02:06.089Z,17.25
2023-09-28T07:04:33.191Z,17.30
2023-09-28T07:06:59.989Z,17.29
2023-09-28T07:09:27.083Z,17.29
2023-09-28T07:11:53.664Z,17.32
2023-09-28T07:14:20.302Z,17.33
2023-09-28T07:16:47.025Z,17.36
2023-09-28T07:19:13.888Z,17.33
2023-09-28T07:21:41.695Z,17.36
2023-09-28T07:24:18.076Z,17.41
2023-09-28T07:26:45.498Z,17.49
2023-09-28T07:29:12.305Z,17.55
2023-09-28T07:31:39.059Z,17.64
2023-09-28T07:34:05.886Z,17.55
2023-09-28T07:36:32.409Z,17.59
2023-09-28T07:38:58.920Z,17.65
2023-09-28T07:41:25.476Z,17.67
2023-09-28T07:43:52.219Z,17.70
2023-09-28T07:46:24.657Z,17.67
2023-09-28T07:48:51.377Z,17.72
2023-09-28T07:51:18.605Z,17.75
2023-09-28T07:53:45.090Z,17.82
2023-09-28T07:56:11.660Z,17.83
2023-09-28T07:58:38.258Z,17.86
2023-09-28T08:01:05.041Z,17.90
2023-09-28T08:03:31.631Z,17.93
2023-09-28T08:05:58.219Z,17.99
2023-09-28T08:08:25.265Z,18.06
2023-09-28T08:10:52.172Z,18.19
2023-09-28T08:13:19.042Z,18.24
2023-09-28T08:15:49.676Z,18.24
2023-09-28T08:18:16.374Z,18.34
2023-09-28T08:20:51.652Z,18.51
2023-09-28T08:23:22.598Z,18.48
2023-09-28T08:25:49.152Z,18.29
2023-09-28T08:28:15.717Z,18.42
2023-09-28T08:30:42.688Z,18.51
2023-09-28T08:33:09.730Z,18.78
2023-09-28T08:35:37.238Z,19.00
2023-09-28T08:38:05.246Z,18.99
2023-09-28T08:40:33.138Z,18.87
2023-09-28T08:43:03.397Z,19.13
2023-09-28T08:45:31.159Z,19.25
2023-09-28T08:47:58.855Z,19.38
2023-09-28T08:50:34.635Z,19.46
2023-09-28T08:53:01.801Z,19.52
2023-09-28T08:55:31.200Z,19.64
2023-09-28T08:57:58.793Z,19.64
2023-09-28T09:00:27.045Z,19.65
2023-09-28T09:02:54.099Z,19.56
2023-09-28T09:05:21.692Z,19.56
2023-09-28T09:07:50.940Z,19.52
2023-09-28T09:10:21.824Z,19.48
2023-09-28T09:12:49.021Z,19.51
2023-09-28T09:15:15.753Z,19.64
2023-09-28T09:17:43.008Z,19.76
2023-09-28T09:20:10.972Z,19.81
2023-09-28T09:22:53.412Z,19.85
2023-09-28T09:25:25.359Z,19.86
2023-09-28T09:27:52.183Z,19.91
2023-09-28T09:30:18.785Z,20.01
2023-09-28T09:32:47.991Z,20.11
2023-09-28T09:35:14.906Z,20.15
2023-09-28T09:37:45.208Z,20.05
2023-09-28T09:40:13.655Z,20.04
2023-09-28T09:42:42.814Z,20.04
2023-09-28T09:45:12.263Z,20.00
2023-09-28T09:47:49.629Z,20.02
2023-09-28T09:50:18.348Z,20.01
2023-09-28T09:52:48.639Z,20.05
2023-09-28T09:55:16.034Z,20.03
2023-09-28T09:57:43.814Z,20.20
2023-09-28T10:00:17.122Z,20.22
2023-09-28T10:02:45.291Z,20.20
2023-09-28T10:05:14.975Z,20.18
2023-09-28T10:10:14.909Z,20.05
2023-09-28T10:12:42.018Z,20.13
2023-09-28T10:15:10.723Z,20.20
2023-09-28T10:17:38.369Z,20.27
2023-09-28T10:20:08.512Z,20.37
2023-09-28T10:22:35.504Z,20.29
2023-09-28T10:25:02.074Z,20.28
2023-09-28T10:27:28.746Z,20.27
2023-09-28T10:30:19.723Z,20.31
2023-09-28T10:32:47.213Z,20.33
2023-09-28T10:35:30.157Z,20.29
2023-09-28T10:38:19.371Z,20.36
2023-09-28T10:41:04.054Z,20.44
2023-09-28T10:43:33.759Z,20.57
2023-09-28T10:46:05.075Z,20.72
2023-09-28T10:48:42.496Z,20.72
2023-09-28T10:51:11.310Z,20.65
2023-09-28T10:53:38.100Z,20.62
2023-09-28T10:56:07.268Z,20.62
2023-09-28T10:58:37.351Z,20.66
2023-09-28T11:01:08.637Z,20.62
2023-09-28T11:03:36.303Z,20.61
2023-09-28T11:06:05.086Z,20.59
2023-09-28T11:08:32.801Z,20.56
2023-09-28T11:11:02.767Z,20.54
2023-09-28T11:13:30.433Z,20.51
2023-09-28T11:15:57.255Z,20.50
2023-09-28T11:18:28.157Z,20.58
2023-09-28T11:20:59.518Z,20.65
2023-09-28T11:23:26.437Z,20.71
2023-09-28T11:25:53.895Z,20.75
2023-09-28T11:28:21.040Z,20.76
2023-09-28T11:31:09.235Z,20.75
2023-09-28T11:33:43.403Z,20.75
2023-09-28T11:36:22.772Z,20.83
2023-09-28T11:38:50.765Z,20.86
2023-09-28T11:41:17.375Z,20.92
2023-09-28T11:43:55.045Z,20.94
2023-09-28T11:46:25.817Z,20.95
2023-09-28T11:49:07.601Z,20.99
2023-09-28T11:51:35.124Z,21.03
2023-09-28T11:54:22.786Z,21.12
2023-09-28T11:56:50.631Z,21.22
2023-09-28T11:59:17.939Z,21.22
2023-09-28T12:01:56.861Z,21.17
2023-09-28T12:04:24.555Z,21.20
2023-09-28T12:06:51.117Z,21.29
2023-09-28T12:09:20.464Z,21.29
2023-09-28T12:11:48.036Z,21.29
2023-09-28T12:14:14.554Z,21.31
2023-09-28T12:16:46.736Z,21.33
2023-09-28T12:19:14.415Z,21.37
2023-09-28T12:21:41.337Z,21.40
2023-09-28T12:24:08.242Z,21.46
2023-09-28T12:26:35.635Z,21.55
2023-09-28T12:29:02.280Z,21.60
2023-09-28T12:31:28.875Z,21.54
2023-09-28T12:33:56.317Z,21.58
2023-09-28T12:36:23.157Z,21.67
2023-09-28T12:38:52.590Z,21.80
2023-09-28T12:41:19.904Z,21.71
2023-09-28T12:43:47.091Z,21.71
2023-09-28T12:46:13.800Z,21.73
2023-09-28T12:48:42.295Z,21.66
2023-09-28T12:51:08.826Z,21.65
2023-09-28T12:53:37.377Z,21.72
2023-09-28T12:56:05.286Z,21.79
2023-09-28T12:58:31.975Z,21.72
2023-09-28T13:00:58.586Z,21.71
2023-09-28T13:03:25.304Z,21.77
2023-09-28T13:05:52.002Z,21.73
2023-09-28T13:08:18.676Z,21.63
2023-09-28T13:10:45.457Z,21.57
2023-09-28T13:13:13.029Z,21.68
2023-09-28T13:15:39.994Z,21.72
2023-09-28T13:18:08.433Z,21.95
2023-09-28T13:20:40.167Z,21.94
2023-09-28T13:23:07.934Z,21.98
2023-09-28T13:25:34.859Z,21.94
2023-09-28T13:28:01.954Z,21.99
2023-09-28T13:30:30.384Z,22.08
2023-09-28T13:33:00.840Z,22.13
2023-09-28T13:35:27.834Z,22.11
2023-09-28T13:37:54.490Z,22.17
2023-09-28T13:40:29.400Z,22.22
2023-09-28T13:42:57.972Z,22.18
2023-09-28T13:45:24.705Z,22.10
2023-09-28T13:47:51.466Z,22.06
2023-09-28T13:50:18.422Z,22.04
2023-09-28T13:52:46.716Z,22.04
2023-09-28T13:55:17.290Z,21.88
2023-09-28T13:57:44.922Z,21.71
2023-09-28T14:00:35.965Z,21.77
2023-09-28T14:03:02.915Z,21.72
2023-09-28T14:05:30.987Z,21.84
2023-09-28T14:07:58.118Z,21.87
2023-09-28T14:10:25.112Z,21.94
2023-09-28T14:12:51.715Z,21.90
2023-09-28T14:15:19.747Z,21.93
2023-09-28T14:17:46.987Z,22.01
2023-09-28T14:20:13.871Z,22.08
2023-09-28T14:22:40.403Z,22.04
2023-09-28T14:25:09.926Z,22.06
2023-09-28T14:27:37.308Z,22.08
2023-09-28T14:30:07.473Z,21.99
2023-09-28T14:32:35.281Z,21.88
2023-09-28T14:35:02.916Z,21.91
2023-09-28T14:37:29.613Z,22.01
2023-09-28T14:39:57.304Z,21.87
2023-09-28T14:42:23.948Z,21.95
2023-09-28T14:44:50.640Z,21.95
2023-09-28T14:47:17.136Z,21.82
2023-09-28T14:49:47.779Z,21.79
2023-09-28T14:52:20.155Z,21.82
2023-09-28T14:54:46.604Z,21.83
2023-09-28T14:57:16.055Z,21.84
2023-09-28T14:59:42.647Z,21.86
2023-09-28T15:02:09.234Z,21.83
2023-09-28T15:04:35.740Z,21.75
2023-09-28T15:07:02.392Z,21.72
2023-09-28T15:09:29.038Z,21.73
2023-09-28T15:11:55.567Z,21.76
2023-09-28T15:14:22.326Z,21.76
2023-09-28T15:16:49.184Z,21.79
2023-09-28T15:19:15.733Z,21.78
2023-09-28T15:21:42.310Z,21.80
2023-09-28T15:24:10.946Z,21.80
2023-09-28T15:26:37.776Z,21.73
2023-09-28T15:29:08.183Z,21.68
2023-09-28T15:31:39.134Z,21.50
2023-09-28T15:34:05.742Z,21.50
2023-09-28T15:36:32.245Z,21.40
2023-09-28T15:38:58.773Z,21.30
2023-09-28T15:41:45.141Z,21.18
2023-09-28T15:44:11.812Z,21.18
2023-09-28T15:46:38.502Z,21.18
2023-09-28T15:49:05.852Z,21.18
2023-09-28T15:51:33.890Z,21.20
2023-09-28T15:54:00.920Z,21.19
2023-09-28T15:56:27.978Z,21.19
2023-09-28T15:58:54.980Z,21.20
2023-09-28T16:01:21.690Z,21.22
2023-09-28T16:03:51.157Z,21.23
2023-09-28T16:06:18.324Z,21.16
2023-09-28T16:08:44.899Z,21.16
2023-09-28T16:11:11.468Z,21.16
2023-09-28T16:13:38.096Z,21.23
2023-09-28T16:16:04.942Z,21.22
2023-09-28T16:18:33.261Z,21.27
2023-09-28T16:21:00.897Z,21.34
2023-09-28T16:23:28.085Z,21.36
2023-09-28T16:25:54.638Z,21.36
2023-09-28T16:28:21.187Z,21.32
2023-09-28T16:30:47.888Z,21.30
2023-09-28T16:33:14.461Z,21.31
2023-09-28T16:35:41.030Z,21.29
2023-09-28T16:38:08.336Z,21.28
2023-09-28T16:40:36.543Z,21.23
2023-09-28T16:43:03.095Z,21.20
2023-09-28T16:45:29.854Z,21.21
2023-09-28T16:48:01.442Z,21.11
2023-09-28T16:50:29.567Z,21.14
2023-09-28T16:52:57.059Z,21.11
2023-09-28T16:55:24.075Z,21.11
2023-09-28T16:57:50.659Z,21.09
2023-09-28T17:00:18.084Z,21.08
2023-09-28T17:02:45.149Z,21.04
2023-09-28T17:05:13.083Z,21.08
2023-09-28T17:07:40.293Z,20.98
2023-09-28T17:10:07.572Z,20.88
2023-09-28T17:12:43.258Z,20.58
2023-09-28T17:15:13.212Z,20.49
2023-09-28T17:17:40.724Z,20.43
2023-09-28T17:20:08.564Z,20.41
2023-09-28T17:22:36.285Z,20.25
2023-09-28T17:25:03.481Z,20.33
2023-09-28T17:27:30.822Z,20.19
2023-09-28T17:29:58.384Z,20.36
2023-09-28T17:32:25.606Z,20.39
2023-09-28T17:34:52.635Z,20.38
2023-09-28T17:37:19.655Z,20.44
2023-09-28T17:39:46.726Z,20.40
2023-09-28T17:42:14.277Z,20.43
2023-09-28T17:44:40.914Z,20.48
2023-09-28T17:47:10.604Z,20.20
2023-09-28T17:49:39.576Z,20.22
2023-09-28T17:52:07.099Z,20.11
2023-09-28T17:54:34.363Z,19.99
2023-09-28T17:57:01.232Z,19.94
2023-09-28T17:59:29.602Z,20.09
2023-09-28T18:01:58.926Z,20.08
2023-09-28T18:04:26.244Z,20.03
2023-09-28T18:06:57.238Z,19.94
2023-09-28T18:09:25.704Z,20.07
2023-09-28T18:11:53.992Z,20.17
2023-09-28T18:14:21.870Z,20.19
2023-09-28T18:16:56.348Z,20.16
2023-09-28T18:19:27.053Z,19.88
2023-09-28T18:21:54.040Z,19.76
2023-09-28T18:24:20.832Z,19.75
2023-09-28T18:26:48.015Z,19.72
2023-09-28T18:29:15.587Z,19.75
2023-09-28T18:31:43.685Z,19.82
2023-09-28T18:34:10.637Z,19.85
2023-09-28T18:36:37.395Z,19.83
2023-09-28T18:39:14.256Z,19.74
2023-09-28T18:41:48.746Z,19.72
2023-09-28T18:44:17.139Z,19.60
2023-09-28T18:46:43.944Z,19.68
2023-09-28T18:49:10.571Z,19.67
2023-09-28T18:51:37.347Z,19.66
2023-09-28T18:54:05.494Z,19.64
2023-09-28T18:56:32.655Z,19.68
2023-09-28T18:58:59.237Z,19.70
2023-09-28T19:01:25.834Z,19.66
2023-09-28T19:03:52.492Z,19.59
2023-09-28T19:06:22.425Z,19.59
2023-09-28T19:08:49.474Z,19.60
2023-09-28T19:11:17.466Z,19.60
2023-09-28T19:13:45.645Z,19.60
2023-09-28T19:16:12.615Z,19.61
2023-09-28T19:18:39.363Z,19.60
2023-09-28T19:21:07.371Z,19.57
2023-09-28T19:23:34.303Z,19.44
2023-09-28T19:26:00.889Z,19.34
2023-09-28T19:28:27.511Z,19.31
2023-09-28T19:30:54.206Z,19.41
2023-09-28T19:33:22.749Z,19.20
2023-09-28T19:35:49.555Z,19.12
2023-09-28T19:38:16.195Z,19.08
2023-09-28T19:40:42.755Z,19.08
2023-09-28T19:43:10.670Z,18.89
2023-09-28T19:45:40.906Z,18.86
2023-09-28T19:48:07.843Z,18.76
2023-09-28T19:50:34.992Z,18.73
2023-09-28T19:53:03.058Z,18.61
2023-09-28T19:55:29.601Z,18.58
2023-09-28T19:57:56.162Z,18.60
2023-09-28T20:00:22.869Z,18.59
2023-09-28T20:02:49.551Z,18.57
2023-09-28T20:05:17.685Z,18.57
2023-09-28T20:07:45.071Z,18.59
2023-09-28T20:10:12.284Z,18.59
2023-09-28T20:12:40.480Z,18.54
2023-09-28T20:15:07.926Z,18.46
2023-09-28T20:17:35.033Z,18.47
2023-09-28T20:20:02.756Z,18.46
2023-09-28T20:22:38.335Z,18.40
2023-09-28T20:25:12.407Z,18.38
2023-09-28T20:27:39.051Z,18.33
2023-09-28T20:30:06.524Z,18.31
2023-09-28T20:32:34.672Z,18.30
2023-09-28T20:35:01.381Z,18.29
2023-09-28T20:37:27.956Z,18.29
2023-09-28T20:39:55.632Z,18.21
2023-09-28T20:42:23.271Z,18.23
2023-09-28T20:44:49.792Z,18.26
2023-09-28T20:47:16.531Z,18.23
2023-09-28T20:49:43.009Z,18.20
2023-09-28T20:52:10.599Z,18.21
2023-09-28T20:54:37.259Z,18.18
2023-09-28T20:57:03.790Z,18.16
2023-09-28T20:59:30.347Z,18.04
2023-09-28T21:01:56.901Z,18.03
2023-09-28T21:04:23.535Z,17.94
2023-09-28T21:06:50.084Z,17.93
2023-09-28T21:09:17.759Z,17.97
2023-09-28T21:11:47.292Z,18.01
2023-09-28T21:14:13.912Z,17.97
2023-09-28T21:16:40.390Z,18.01
2023-09-28T21:19:07.006Z,18.03
2023-09-28T21:21:33.529Z,18.03
2023-09-28T21:24:00.076Z,18.08
2023-09-28T21:26:26.619Z,18.13
2023-09-28T21:28:53.319Z,18.15
2023-09-28T21:31:19.973Z,18.16
2023-09-28T21:33:46.515Z,18.02
2023-09-28T21:36:13.096Z,18.03
2023-09-28T21:38:39.573Z,18.09
2023-09-28T21:41:10.873Z,18.10
2023-09-28T21:43:41.186Z,18.08
2023-09-28T21:46:07.890Z,18.13
2023-09-28T21:48:34.603Z,18.11
2023-09-28T21:51:01.556Z,18.08
2023-09-28T21:53:28.740Z,18.08
2023-09-28T21:55:56.068Z,18.08
2023-09-28T21:58:22.685Z,17.89
2023-09-28T22:00:49.283Z,17.82
2023-09-28T22:03:15.924Z,17.71
2023-09-28T22:05:42.586Z,17.65
2023-09-28T22:08:09.273Z,17.72
2023-09-28T22:10:37.204Z,17.68
2023-09-28T22:13:03.806Z,17.67
2023-09-28T22:15:30.320Z,17.68
2023-09-28T22:17:57.005Z,17.73
2023-09-28T22:20:23.674Z,17.76
2023-09-28T22:22:50.211Z,17.65
2023-09-28T22:25:18.308Z,17.64
2023-09-28T22:27:44.811Z,17.61
2023-09-28T22:30:11.553Z,17.62
2023-09-28T22:32:40.040Z,17.68
2023-09-28T22:35:09.757Z,17.76
2023-09-28T22:37:38.923Z,17.79
2023-09-28T22:40:26.325Z,17.77
2023-09-28T22:42:54.885Z,17.74
2023-09-28T22:45:21.650Z,17.80
2023-09-28T22:47:48.709Z,17.84
2023-09-28T22:50:15.899Z,17.82
2023-09-28T22:52:43.179Z,17.80
2023-09-28T22:55:12.700Z,17.84
2023-09-28T22:57:39.890Z,17.86
2023-09-28T23:00:06.931Z,17.79
2023-09-28T23:02:35.122Z,17.77
2023-09-28T23:05:02.109Z,17.80
2023-09-28T23:07:29.376Z,17.84
2023-09-28T23:09:56.659Z,17.92
2023-09-28T23:12:23.238Z,17.94
2023-09-28T23:14:49.945Z,17.96
2023-09-28T23:17:16.552Z,17.98
2023-09-28T23:19:43.067Z,17.96
2023-09-28T23:22:12.500Z,17.98
2023-09-28T23:24:39.663Z,17.99
2023-09-28T23:27:06.740Z,18.05
2023-09-28T23:29:34.302Z,18.08
2023-09-28T23:32:02.299Z,18.13
2023-09-28T23:34:29.285Z,18.17
2023-09-28T23:36:56.270Z,18.18
2023-09-28T23:39:22.806Z,18.16
2023-09-28T23:41:53.459Z,18.14
2023-09-28T23:44:20.088Z,18.12
2023-09-28T23:46:46.969Z,18.13
2023-09-28T23:49:13.917Z,18.13
2023-09-28T23:51:40.946Z,18.16
2023-09-28T23:54:09.554Z,18.12
2023-09-28T23:56:40.892Z,18.14
2023-09-28T23:59:13.005Z,18.17
